sensor_id;sensor_type;location;lat;lon;timestamp;temperature;humidity
21445;DHT22;10883;51.946;20.140;2023-04-25T00:01:32;12.20;99.90
21445;DHT22;10883;51.946;20.140;2023-04-25T00:04:00;12.50;99.90
21445;DHT22;10883;51.946;20.140;2023-04-25T00:06:26;12.40;99.90
21445;DHT22;10883;51.946;20.140;2023-04-25T00:08:52;12.40;99.90
21445;DHT22;10883;51.946;20.140;2023-04-25T00:11:19;12.40;99.90
21445;DHT22;10883;51.946;20.140;2023-04-25T00:13:45;12.40;99.90
21445;DHT22;10883;51.946;20.140;2023-04-25T00:16:11;12.50;99.90
21445;DHT22;10883;51.946;20.140;2023-04-25T00:18:41;12.40;99.90
21445;DHT22;10883;51.946;20.140;2023-04-25T00:21:07;12.50;99.90
21445;DHT22;10883;51.946;20.140;2023-04-25T00:23:33;12.50;99.90
21445;DHT22;10883;51.946;20.140;2023-04-25T00:26:01;12.40;99.90
21445;DHT22;10883;51.946;20.140;2023-04-25T00:28:26;12.40;99.90
21445;DHT22;10883;51.946;20.140;2023-04-25T00:30:52;12.30;99.90
21445;DHT22;10883;51.946;20.140;2023-04-25T00:33:18;12.20;99.90
21445;DHT22;10883;51.946;20.140;2023-04-25T00:35:44;12.10;99.90
21445;DHT22;10883;51.946;20.140;2023-04-25T00:38:10;12.20;99.90
21445;DHT22;10883;51.946;20.140;2023-04-25T00:40:35;11.90;99.90
21445;DHT22;10883;51.946;20.140;2023-04-25T00:43:01;12.20;99.90
21445;DHT22;10883;51.946;20.140;2023-04-25T00:45:28;12.10;99.90
21445;DHT22;10883;51.946;20.140;2023-04-25T00:47:58;12.10;99.90
21445;DHT22;10883;51.946;20.140;2023-04-25T00:50:24;12.10;99.90
21445;DHT22;10883;51.946;20.140;2023-04-25T00:52:50;12.10;99.90
21445;DHT22;10883;51.946;20.140;2023-04-25T00:55:16;12.10;99.90
21445;DHT22;10883;51.946;20.140;2023-04-25T00:57:42;12.10;99.90
21445;DHT22;10883;51.946;20.140;2023-04-25T01:00:09;12.10;99.90
21445;DHT22;10883;51.946;20.140;2023-04-25T01:02:36;12.10;99.90
21445;DHT22;10883;51.946;20.140;2023-04-25T01:05:03;12.00;99.90
21445;DHT22;10883;51.946;20.140;2023-04-25T01:07:29;12.10;99.90
21445;DHT22;10883;51.946;20.140;2023-04-25T01:09:55;12.10;99.90
21445;DHT22;10883;51.946;20.140;2023-04-25T01:12:22;12.10;99.90
21445;DHT22;10883;51.946;20.140;2023-04-25T01:14:48;12.30;99.90
21445;DHT22;10883;51.946;20.140;2023-04-25T01:17:14;12.10;99.90
21445;DHT22;10883;51.946;20.140;2023-04-25T01:19:40;12.10;99.90
21445;DHT22;10883;51.946;20.140;2023-04-25T01:22:06;12.10;99.90
21445;DHT22;10883;51.946;20.140;2023-04-25T01:24:33;12.10;99.90
21445;DHT22;10883;51.946;20.140;2023-04-25T01:27:00;12.00;99.90
21445;DHT22;10883;51.946;20.140;2023-04-25T01:29:26;12.00;99.90
21445;DHT22;10883;51.946;20.140;2023-04-25T01:31:52;12.10;99.90
21445;DHT22;10883;51.946;20.140;2023-04-25T01:34:18;12.10;99.90
21445;DHT22;10883;51.946;20.140;2023-04-25T01:36:45;12.00;99.90
21445;DHT22;10883;51.946;20.140;2023-04-25T01:39:12;12.00;99.90
21445;DHT22;10883;51.946;20.140;2023-04-25T01:41:38;12.10;99.90
21445;DHT22;10883;51.946;20.140;2023-04-25T01:44:04;12.10;99.90
21445;DHT22;10883;51.946;20.140;2023-04-25T01:46:30;12.10;99.90
21445;DHT22;10883;51.946;20.140;2023-04-25T01:48:56;12.00;99.90
21445;DHT22;10883;51.946;20.140;2023-04-25T01:51:22;12.00;99.90
21445;DHT22;10883;51.946;20.140;2023-04-25T01:53:48;12.00;99.90
21445;DHT22;10883;51.946;20.140;2023-04-25T01:56:14;12.10;99.90
21445;DHT22;10883;51.946;20.140;2023-04-25T01:58:40;12.00;99.90
21445;DHT22;10883;51.946;20.140;2023-04-25T02:01:05;12.00;99.90
21445;DHT22;10883;51.946;20.140;2023-04-25T02:03:32;12.00;99.90
21445;DHT22;10883;51.946;20.140;2023-04-25T02:05:57;12.00;99.90
21445;DHT22;10883;51.946;20.140;2023-04-25T02:08:23;12.00;99.90
21445;DHT22;10883;51.946;20.140;2023-04-25T02:10:51;12.00;99.90
21445;DHT22;10883;51.946;20.140;2023-04-25T02:13:17;12.00;99.90
21445;DHT22;10883;51.946;20.140;2023-04-25T02:15:43;11.90;99.90
21445;DHT22;10883;51.946;20.140;2023-04-25T02:18:08;11.90;99.90
21445;DHT22;10883;51.946;20.140;2023-04-25T02:20:36;11.90;99.90
21445;DHT22;10883;51.946;20.140;2023-04-25T02:23:02;11.80;99.90
21445;DHT22;10883;51.946;20.140;2023-04-25T02:25:28;11.90;99.90
21445;DHT22;10883;51.946;20.140;2023-04-25T02:27:54;11.80;99.90
21445;DHT22;10883;51.946;20.140;2023-04-25T02:30:20;11.80;99.90
21445;DHT22;10883;51.946;20.140;2023-04-25T02:32:46;11.90;99.90
21445;DHT22;10883;51.946;20.140;2023-04-25T02:35:12;11.80;99.90
21445;DHT22;10883;51.946;20.140;2023-04-25T02:37:39;11.80;99.90
21445;DHT22;10883;51.946;20.140;2023-04-25T02:40:06;11.70;99.90
21445;DHT22;10883;51.946;20.140;2023-04-25T02:42:32;11.70;99.90
21445;DHT22;10883;51.946;20.140;2023-04-25T02:44:58;11.70;99.90
21445;DHT22;10883;51.946;20.140;2023-04-25T02:47:24;11.60;99.90
21445;DHT22;10883;51.946;20.140;2023-04-25T02:49:50;11.60;99.90
21445;DHT22;10883;51.946;20.140;2023-04-25T02:52:16;11.60;99.90
21445;DHT22;10883;51.946;20.140;2023-04-25T02:54:41;11.50;99.90
21445;DHT22;10883;51.946;20.140;2023-04-25T02:57:07;11.50;99.90
21445;DHT22;10883;51.946;20.140;2023-04-25T02:59:33;11.40;99.90
21445;DHT22;10883;51.946;20.140;2023-04-25T03:01:59;11.40;99.90
21445;DHT22;10883;51.946;20.140;2023-04-25T03:04:25;11.30;99.90
21445;DHT22;10883;51.946;20.140;2023-04-25T03:06:51;11.30;99.90
21445;DHT22;10883;51.946;20.140;2023-04-25T03:09:17;11.20;99.90
21445;DHT22;10883;51.946;20.140;2023-04-25T03:11:44;11.20;99.90
21445;DHT22;10883;51.946;20.140;2023-04-25T03:14:11;11.20;99.90
21445;DHT22;10883;51.946;20.140;2023-04-25T03:16:37;11.10;99.90
21445;DHT22;10883;51.946;20.140;2023-04-25T03:19:03;11.10;99.90
21445;DHT22;10883;51.946;20.140;2023-04-25T03:21:30;11.10;99.90
21445;DHT22;10883;51.946;20.140;2023-04-25T03:23:57;11.10;99.90
21445;DHT22;10883;51.946;20.140;2023-04-25T03:26:23;11.00;99.90
21445;DHT22;10883;51.946;20.140;2023-04-25T03:28:49;11.00;99.90
21445;DHT22;10883;51.946;20.140;2023-04-25T03:31:15;11.00;99.90
21445;DHT22;10883;51.946;20.140;2023-04-25T03:33:41;11.00;99.90
21445;DHT22;10883;51.946;20.140;2023-04-25T03:36:07;10.90;99.90
21445;DHT22;10883;51.946;20.140;2023-04-25T03:38:33;10.90;99.90
21445;DHT22;10883;51.946;20.140;2023-04-25T03:40:59;10.90;99.90
21445;DHT22;10883;51.946;20.140;2023-04-25T03:43:24;10.90;99.90
21445;DHT22;10883;51.946;20.140;2023-04-25T03:45:50;10.90;99.90
21445;DHT22;10883;51.946;20.140;2023-04-25T03:48:16;10.90;99.90
21445;DHT22;10883;51.946;20.140;2023-04-25T03:50:42;10.80;99.90
21445;DHT22;10883;51.946;20.140;2023-04-25T03:53:08;10.80;99.90
21445;DHT22;10883;51.946;20.140;2023-04-25T03:55:33;10.80;99.90
21445;DHT22;10883;51.946;20.140;2023-04-25T03:57:59;10.70;99.90
21445;DHT22;10883;51.946;20.140;2023-04-25T04:00:25;10.70;99.90
21445;DHT22;10883;51.946;20.140;2023-04-25T04:02:51;10.70;99.90
21445;DHT22;10883;51.946;20.140;2023-04-25T04:05:17;10.70;99.90
21445;DHT22;10883;51.946;20.140;2023-04-25T04:07:43;10.70;99.90
21445;DHT22;10883;51.946;20.140;2023-04-25T04:10:09;10.70;99.90
21445;DHT22;10883;51.946;20.140;2023-04-25T04:12:36;10.70;99.90
21445;DHT22;10883;51.946;20.140;2023-04-25T04:15:03;10.70;99.90
21445;DHT22;10883;51.946;20.140;2023-04-25T04:17:29;10.70;99.90
21445;DHT22;10883;51.946;20.140;2023-04-25T04:19:55;10.60;99.90
21445;DHT22;10883;51.946;20.140;2023-04-25T04:22:22;10.60;99.90
21445;DHT22;10883;51.946;20.140;2023-04-25T04:24:48;10.70;99.90
21445;DHT22;10883;51.946;20.140;2023-04-25T04:27:16;10.70;99.90
21445;DHT22;10883;51.946;20.140;2023-04-25T04:29:43;10.60;99.90
21445;DHT22;10883;51.946;20.140;2023-04-25T04:32:09;10.60;99.90
21445;DHT22;10883;51.946;20.140;2023-04-25T04:34:35;10.50;99.90
21445;DHT22;10883;51.946;20.140;2023-04-25T04:37:01;10.40;99.90
21445;DHT22;10883;51.946;20.140;2023-04-25T04:39:28;10.40;99.90
21445;DHT22;10883;51.946;20.140;2023-04-25T04:41:54;10.40;99.90
21445;DHT22;10883;51.946;20.140;2023-04-25T04:44:20;10.40;99.90
21445;DHT22;10883;51.946;20.140;2023-04-25T04:46:46;10.30;99.90
21445;DHT22;10883;51.946;20.140;2023-04-25T04:49:12;10.40;99.90
21445;DHT22;10883;51.946;20.140;2023-04-25T04:51:39;10.30;99.90
21445;DHT22;10883;51.946;20.140;2023-04-25T04:54:06;10.30;99.90
21445;DHT22;10883;51.946;20.140;2023-04-25T04:56:32;10.30;99.90
21445;DHT22;10883;51.946;20.140;2023-04-25T04:58:58;10.30;99.90
21445;DHT22;10883;51.946;20.140;2023-04-25T05:01:25;10.30;99.90
21445;DHT22;10883;51.946;20.140;2023-04-25T05:03:52;10.30;99.90
21445;DHT22;10883;51.946;20.140;2023-04-25T05:06:21;10.30;99.90
21445;DHT22;10883;51.946;20.140;2023-04-25T05:08:46;10.30;99.90
21445;DHT22;10883;51.946;20.140;2023-04-25T05:11:12;10.30;99.90
21445;DHT22;10883;51.946;20.140;2023-04-25T05:13:38;10.30;99.90
21445;DHT22;10883;51.946;20.140;2023-04-25T05:16:04;10.30;99.90
21445;DHT22;10883;51.946;20.140;2023-04-25T05:18:30;10.20;99.90
21445;DHT22;10883;51.946;20.140;2023-04-25T05:20:56;10.20;99.90
21445;DHT22;10883;51.946;20.140;2023-04-25T05:23:21;10.10;99.90
21445;DHT22;10883;51.946;20.140;2023-04-25T05:25:47;10.10;99.90
21445;DHT22;10883;51.946;20.140;2023-04-25T05:28:13;10.00;99.90
21445;DHT22;10883;51.946;20.140;2023-04-25T05:30:39;9.90;99.90
21445;DHT22;10883;51.946;20.140;2023-04-25T05:33:05;9.90;99.90
21445;DHT22;10883;51.946;20.140;2023-04-25T05:35:32;9.80;99.90
21445;DHT22;10883;51.946;20.140;2023-04-25T05:37:57;9.90;99.90
21445;DHT22;10883;51.946;20.140;2023-04-25T05:40:23;9.90;99.90
21445;DHT22;10883;51.946;20.140;2023-04-25T05:42:49;10.00;99.90
21445;DHT22;10883;51.946;20.140;2023-04-25T05:45:15;10.00;99.90
21445;DHT22;10883;51.946;20.140;2023-04-25T05:47:40;10.00;99.90
21445;DHT22;10883;51.946;20.140;2023-04-25T05:50:07;10.00;99.90
21445;DHT22;10883;51.946;20.140;2023-04-25T05:52:35;9.90;99.90
21445;DHT22;10883;51.946;20.140;2023-04-25T05:55:00;9.90;99.90
21445;DHT22;10883;51.946;20.140;2023-04-25T05:57:27;10.00;99.90
21445;DHT22;10883;51.946;20.140;2023-04-25T05:59:53;10.00;99.90
21445;DHT22;10883;51.946;20.140;2023-04-25T06:02:20;10.10;99.90
21445;DHT22;10883;51.946;20.140;2023-04-25T06:04:48;10.10;99.90
21445;DHT22;10883;51.946;20.140;2023-04-25T06:07:14;10.10;99.90
21445;DHT22;10883;51.946;20.140;2023-04-25T06:09:40;10.20;99.90
21445;DHT22;10883;51.946;20.140;2023-04-25T06:12:06;10.20;99.90
21445;DHT22;10883;51.946;20.140;2023-04-25T06:14:33;10.20;99.90
21445;DHT22;10883;51.946;20.140;2023-04-25T06:16:59;10.30;99.90
21445;DHT22;10883;51.946;20.140;2023-04-25T06:19:25;10.40;99.90
21445;DHT22;10883;51.946;20.140;2023-04-25T06:21:50;10.40;99.90
21445;DHT22;10883;51.946;20.140;2023-04-25T06:24:16;10.30;99.90
21445;DHT22;10883;51.946;20.140;2023-04-25T06:26:42;10.40;99.90
21445;DHT22;10883;51.946;20.140;2023-04-25T06:29:08;10.40;99.90
21445;DHT22;10883;51.946;20.140;2023-04-25T06:31:34;10.40;99.90
21445;DHT22;10883;51.946;20.140;2023-04-25T06:34:00;10.40;99.90
21445;DHT22;10883;51.946;20.140;2023-04-25T06:36:26;10.50;99.90
21445;DHT22;10883;51.946;20.140;2023-04-25T06:38:53;10.50;99.90
21445;DHT22;10883;51.946;20.140;2023-04-25T06:41:20;10.50;99.90
21445;DHT22;10883;51.946;20.140;2023-04-25T06:43:46;10.50;99.90
21445;DHT22;10883;51.946;20.140;2023-04-25T06:46:12;10.50;99.90
21445;DHT22;10883;51.946;20.140;2023-04-25T06:48:37;10.60;99.90
21445;DHT22;10883;51.946;20.140;2023-04-25T06:51:03;10.70;99.90
21445;DHT22;10883;51.946;20.140;2023-04-25T06:53:29;10.80;99.90
21445;DHT22;10883;51.946;20.140;2023-04-25T06:55:56;10.90;99.90
21445;DHT22;10883;51.946;20.140;2023-04-25T06:58:22;10.90;99.90
21445;DHT22;10883;51.946;20.140;2023-04-25T07:00:47;11.00;99.90
21445;DHT22;10883;51.946;20.140;2023-04-25T07:03:13;11.20;99.90
21445;DHT22;10883;51.946;20.140;2023-04-25T07:05:39;11.30;99.90
21445;DHT22;10883;51.946;20.140;2023-04-25T07:08:05;11.30;99.90
21445;DHT22;10883;51.946;20.140;2023-04-25T07:10:30;11.40;99.90
21445;DHT22;10883;51.946;20.140;2023-04-25T07:12:56;11.50;99.90
21445;DHT22;10883;51.946;20.140;2023-04-25T07:15:22;11.70;99.90
21445;DHT22;10883;51.946;20.140;2023-04-25T07:17:48;11.80;99.90
21445;DHT22;10883;51.946;20.140;2023-04-25T07:20:13;11.90;99.90
21445;DHT22;10883;51.946;20.140;2023-04-25T07:22:39;12.10;99.90
21445;DHT22;10883;51.946;20.140;2023-04-25T07:25:06;12.20;99.90
21445;DHT22;10883;51.946;20.140;2023-04-25T07:27:32;12.30;99.90
21445;DHT22;10883;51.946;20.140;2023-04-25T07:29:57;12.30;99.90
21445;DHT22;10883;51.946;20.140;2023-04-25T07:32:25;12.20;99.90
21445;DHT22;10883;51.946;20.140;2023-04-25T07:34:50;12.30;99.90
21445;DHT22;10883;51.946;20.140;2023-04-25T07:37:16;12.30;99.90
21445;DHT22;10883;51.946;20.140;2023-04-25T07:39:44;12.20;99.90
21445;DHT22;10883;51.946;20.140;2023-04-25T07:42:11;12.40;99.90
21445;DHT22;10883;51.946;20.140;2023-04-25T07:44:37;12.50;99.90
21445;DHT22;10883;51.946;20.140;2023-04-25T07:47:07;12.90;99.90
21445;DHT22;10883;51.946;20.140;2023-04-25T07:49:34;12.80;99.90
21445;DHT22;10883;51.946;20.140;2023-04-25T07:52:01;12.90;99.90
21445;DHT22;10883;51.946;20.140;2023-04-25T07:54:27;13.00;99.90
21445;DHT22;10883;51.946;20.140;2023-04-25T07:56:53;13.10;99.90
21445;DHT22;10883;51.946;20.140;2023-04-25T07:59:19;13.20;99.90
21445;DHT22;10883;51.946;20.140;2023-04-25T08:01:45;13.30;99.90
21445;DHT22;10883;51.946;20.140;2023-04-25T08:04:11;13.20;99.90
21445;DHT22;10883;51.946;20.140;2023-04-25T08:06:37;13.20;99.90
21445;DHT22;10883;51.946;20.140;2023-04-25T08:09:03;13.10;99.90
21445;DHT22;10883;51.946;20.140;2023-04-25T08:11:29;13.20;99.90
21445;DHT22;10883;51.946;20.140;2023-04-25T08:13:55;13.20;99.90
21445;DHT22;10883;51.946;20.140;2023-04-25T08:16:21;13.00;99.90
21445;DHT22;10883;51.946;20.140;2023-04-25T08:18:47;13.10;99.90
21445;DHT22;10883;51.946;20.140;2023-04-25T08:21:14;13.50;99.90
21445;DHT22;10883;51.946;20.140;2023-04-25T08:23:40;13.90;99.90
21445;DHT22;10883;51.946;20.140;2023-04-25T08:26:08;14.20;99.90
21445;DHT22;10883;51.946;20.140;2023-04-25T08:28:33;14.30;99.90
21445;DHT22;10883;51.946;20.140;2023-04-25T08:30:59;14.60;99.90
21445;DHT22;10883;51.946;20.140;2023-04-25T08:33:25;14.60;99.90
21445;DHT22;10883;51.946;20.140;2023-04-25T08:35:51;14.50;99.90
21445;DHT22;10883;51.946;20.140;2023-04-25T08:38:17;14.60;99.90
21445;DHT22;10883;51.946;20.140;2023-04-25T08:40:44;14.60;99.90
21445;DHT22;10883;51.946;20.140;2023-04-25T08:43:13;14.60;99.90
21445;DHT22;10883;51.946;20.140;2023-04-25T08:45:40;14.40;99.90
21445;DHT22;10883;51.946;20.140;2023-04-25T08:48:11;14.20;99.90
21445;DHT22;10883;51.946;20.140;2023-04-25T08:50:50;13.90;99.90
21445;DHT22;10883;51.946;20.140;2023-04-25T08:53:17;13.70;99.90
21445;DHT22;10883;51.946;20.140;2023-04-25T08:55:46;13.60;99.90
21445;DHT22;10883;51.946;20.140;2023-04-25T08:58:14;13.50;99.90
21445;DHT22;10883;51.946;20.140;2023-04-25T09:00:40;13.60;99.90
21445;DHT22;10883;51.946;20.140;2023-04-25T09:03:06;13.60;99.90
21445;DHT22;10883;51.946;20.140;2023-04-25T09:05:33;13.60;99.90
21445;DHT22;10883;51.946;20.140;2023-04-25T09:08:00;13.60;99.90
21445;DHT22;10883;51.946;20.140;2023-04-25T09:10:27;13.70;99.90
21445;DHT22;10883;51.946;20.140;2023-04-25T09:13:11;13.70;99.90
21445;DHT22;10883;51.946;20.140;2023-04-25T09:15:51;13.60;99.90
21445;DHT22;10883;51.946;20.140;2023-04-25T09:18:27;13.50;99.90
21445;DHT22;10883;51.946;20.140;2023-04-25T09:20:55;13.60;99.90
21445;DHT22;10883;51.946;20.140;2023-04-25T09:23:22;13.60;99.90
21445;DHT22;10883;51.946;20.140;2023-04-25T09:25:50;13.50;99.90
21445;DHT22;10883;51.946;20.140;2023-04-25T09:28:18;13.50;99.90
21445;DHT22;10883;51.946;20.140;2023-04-25T09:30:48;13.50;99.90
21445;DHT22;10883;51.946;20.140;2023-04-25T09:33:14;13.30;99.90
21445;DHT22;10883;51.946;20.140;2023-04-25T09:35:42;13.10;99.90
21445;DHT22;10883;51.946;20.140;2023-04-25T09:38:12;13.10;99.90
21445;DHT22;10883;51.946;20.140;2023-04-25T09:40:46;12.90;99.90
21445;DHT22;10883;51.946;20.140;2023-04-25T09:43:20;12.80;99.90
21445;DHT22;10883;51.946;20.140;2023-04-25T09:45:46;13.00;99.90
21445;DHT22;10883;51.946;20.140;2023-04-25T09:48:22;13.10;99.90
21445;DHT22;10883;51.946;20.140;2023-04-25T09:51:07;13.40;99.90
21445;DHT22;10883;51.946;20.140;2023-04-25T09:53:34;13.50;99.90
21445;DHT22;10883;51.946;20.140;2023-04-25T09:56:04;13.50;99.90
21445;DHT22;10883;51.946;20.140;2023-04-25T09:58:31;13.60;99.90
21445;DHT22;10883;51.946;20.140;2023-04-25T10:01:00;13.80;99.90
21445;DHT22;10883;51.946;20.140;2023-04-25T10:03:26;13.90;99.90
21445;DHT22;10883;51.946;20.140;2023-04-25T10:05:55;14.00;99.90
21445;DHT22;10883;51.946;20.140;2023-04-25T10:08:22;14.20;99.90
21445;DHT22;10883;51.946;20.140;2023-04-25T10:10:49;14.60;99.90
21445;DHT22;10883;51.946;20.140;2023-04-25T10:13:16;14.70;99.90
21445;DHT22;10883;51.946;20.140;2023-04-25T10:15:42;14.80;99.90
21445;DHT22;10883;51.946;20.140;2023-04-25T10:18:08;14.90;99.90
21445;DHT22;10883;51.946;20.140;2023-04-25T10:20:35;15.30;99.90
21445;DHT22;10883;51.946;20.140;2023-04-25T10:23:13;15.40;99.90
21445;DHT22;10883;51.946;20.140;2023-04-25T10:25:40;15.40;99.90
21445;DHT22;10883;51.946;20.140;2023-04-25T10:28:06;15.40;99.90
21445;DHT22;10883;51.946;20.140;2023-04-25T10:30:31;15.40;99.90
21445;DHT22;10883;51.946;20.140;2023-04-25T10:32:59;15.50;99.90
21445;DHT22;10883;51.946;20.140;2023-04-25T10:35:27;15.90;99.90
21445;DHT22;10883;51.946;20.140;2023-04-25T10:38:09;16.10;99.90
21445;DHT22;10883;51.946;20.140;2023-04-25T10:40:35;15.90;99.90
21445;DHT22;10883;51.946;20.140;2023-04-25T10:46:24;15.30;99.90
21445;DHT22;10883;51.946;20.140;2023-04-25T10:48:55;15.10;99.90
21445;DHT22;10883;51.946;20.140;2023-04-25T10:51:29;15.10;99.90
21445;DHT22;10883;51.946;20.140;2023-04-25T10:54:02;14.70;99.90
21445;DHT22;10883;51.946;20.140;2023-04-25T10:56:32;14.70;99.90
21445;DHT22;10883;51.946;20.140;2023-04-25T11:01:39;15.00;99.90
21445;DHT22;10883;51.946;20.140;2023-04-25T11:04:06;15.80;99.90
21445;DHT22;10883;51.946;20.140;2023-04-25T11:09:24;17.20;99.90
21445;DHT22;10883;51.946;20.140;2023-04-25T11:11:56;16.70;99.90
21445;DHT22;10883;51.946;20.140;2023-04-25T11:14:23;16.40;99.90
21445;DHT22;10883;51.946;20.140;2023-04-25T11:16:58;15.90;99.90
21445;DHT22;10883;51.946;20.140;2023-04-25T11:19:24;15.50;99.90
21445;DHT22;10883;51.946;20.140;2023-04-25T11:21:51;15.20;99.90
21445;DHT22;10883;51.946;20.140;2023-04-25T11:24:21;14.90;99.90
21445;DHT22;10883;51.946;20.140;2023-04-25T11:26:50;14.70;99.90
21445;DHT22;10883;51.946;20.140;2023-04-25T11:29:17;14.40;99.90
21445;DHT22;10883;51.946;20.140;2023-04-25T11:31:45;14.40;99.90
21445;DHT22;10883;51.946;20.140;2023-04-25T11:34:11;14.50;99.90
21445;DHT22;10883;51.946;20.140;2023-04-25T11:36:38;14.60;99.90
21445;DHT22;10883;51.946;20.140;2023-04-25T11:39:04;14.30;99.90
21445;DHT22;10883;51.946;20.140;2023-04-25T11:41:31;14.30;99.90
21445;DHT22;10883;51.946;20.140;2023-04-25T11:43:57;14.10;99.90
21445;DHT22;10883;51.946;20.140;2023-04-25T11:46:23;13.80;99.90
21445;DHT22;10883;51.946;20.140;2023-04-25T11:48:48;13.60;99.90
21445;DHT22;10883;51.946;20.140;2023-04-25T11:51:15;13.60;99.90
21445;DHT22;10883;51.946;20.140;2023-04-25T11:53:42;13.60;99.90
21445;DHT22;10883;51.946;20.140;2023-04-25T11:56:11;13.50;99.90
21445;DHT22;10883;51.946;20.140;2023-04-25T11:58:57;13.70;99.90
21445;DHT22;10883;51.946;20.140;2023-04-25T12:01:33;13.80;99.90
21445;DHT22;10883;51.946;20.140;2023-04-25T12:04:10;14.00;99.90
21445;DHT22;10883;51.946;20.140;2023-04-25T12:06:41;14.00;99.90
21445;DHT22;10883;51.946;20.140;2023-04-25T12:09:09;14.00;99.90
21445;DHT22;10883;51.946;20.140;2023-04-25T12:11:47;14.00;99.90
21445;DHT22;10883;51.946;20.140;2023-04-25T12:14:24;14.10;99.90
21445;DHT22;10883;51.946;20.140;2023-04-25T12:16:51;14.20;99.90
21445;DHT22;10883;51.946;20.140;2023-04-25T12:19:18;14.40;99.90
21445;DHT22;10883;51.946;20.140;2023-04-25T12:21:44;14.50;99.90
21445;DHT22;10883;51.946;20.140;2023-04-25T12:24:12;14.60;99.90
21445;DHT22;10883;51.946;20.140;2023-04-25T12:29:21;14.70;99.90
21445;DHT22;10883;51.946;20.140;2023-04-25T12:31:48;14.50;99.90
21445;DHT22;10883;51.946;20.140;2023-04-25T12:34:14;14.40;99.90
21445;DHT22;10883;51.946;20.140;2023-04-25T12:36:41;14.40;99.90
21445;DHT22;10883;51.946;20.140;2023-04-25T12:39:07;14.40;99.90
21445;DHT22;10883;51.946;20.140;2023-04-25T12:41:33;14.30;99.90
21445;DHT22;10883;51.946;20.140;2023-04-25T12:43:59;14.10;99.90
21445;DHT22;10883;51.946;20.140;2023-04-25T12:46:25;14.10;99.90
21445;DHT22;10883;51.946;20.140;2023-04-25T12:48:51;14.10;99.90
21445;DHT22;10883;51.946;20.140;2023-04-25T12:51:17;14.10;99.90
21445;DHT22;10883;51.946;20.140;2023-04-25T12:53:42;14.00;99.90
21445;DHT22;10883;51.946;20.140;2023-04-25T12:56:09;13.90;99.90
21445;DHT22;10883;51.946;20.140;2023-04-25T12:58:34;13.90;99.90
21445;DHT22;10883;51.946;20.140;2023-04-25T13:01:00;13.80;99.90
21445;DHT22;10883;51.946;20.140;2023-04-25T13:03:26;13.70;99.90
21445;DHT22;10883;51.946;20.140;2023-04-25T13:05:52;13.80;99.90
21445;DHT22;10883;51.946;20.140;2023-04-25T13:08:18;13.90;99.90
21445;DHT22;10883;51.946;20.140;2023-04-25T13:10:44;13.90;99.90
21445;DHT22;10883;51.946;20.140;2023-04-25T13:13:10;13.80;99.90
21445;DHT22;10883;51.946;20.140;2023-04-25T13:15:36;13.50;99.90
21445;DHT22;10883;51.946;20.140;2023-04-25T13:18:05;13.20;99.90
21445;DHT22;10883;51.946;20.140;2023-04-25T13:20:32;13.20;99.90
21445;DHT22;10883;51.946;20.140;2023-04-25T13:22:59;13.10;99.90
21445;DHT22;10883;51.946;20.140;2023-04-25T13:25:25;13.20;99.90
21445;DHT22;10883;51.946;20.140;2023-04-25T13:27:51;13.30;99.90
21445;DHT22;10883;51.946;20.140;2023-04-25T13:30:17;13.50;99.90
21445;DHT22;10883;51.946;20.140;2023-04-25T13:32:43;13.70;99.90
21445;DHT22;10883;51.946;20.140;2023-04-25T13:35:12;13.80;99.90
21445;DHT22;10883;51.946;20.140;2023-04-25T13:37:39;13.90;99.90
21445;DHT22;10883;51.946;20.140;2023-04-25T13:40:07;13.90;99.90
21445;DHT22;10883;51.946;20.140;2023-04-25T13:42:35;13.70;99.90
21445;DHT22;10883;51.946;20.140;2023-04-25T13:45:01;13.70;99.90
21445;DHT22;10883;51.946;20.140;2023-04-25T13:47:27;13.40;99.90
21445;DHT22;10883;51.946;20.140;2023-04-25T13:49:53;13.30;99.90
21445;DHT22;10883;51.946;20.140;2023-04-25T13:52:20;13.20;99.90
21445;DHT22;10883;51.946;20.140;2023-04-25T13:54:46;13.10;99.90
21445;DHT22;10883;51.946;20.140;2023-04-25T13:57:12;13.00;99.90
21445;DHT22;10883;51.946;20.140;2023-04-25T13:59:39;12.90;99.90
21445;DHT22;10883;51.946;20.140;2023-04-25T14:02:06;12.80;99.90
21445;DHT22;10883;51.946;20.140;2023-04-25T14:04:33;12.70;99.90
21445;DHT22;10883;51.946;20.140;2023-04-25T14:06:59;12.60;99.90
21445;DHT22;10883;51.946;20.140;2023-04-25T14:09:25;12.50;99.90
21445;DHT22;10883;51.946;20.140;2023-04-25T14:11:52;12.50;99.90
21445;DHT22;10883;51.946;20.140;2023-04-25T14:14:19;12.30;99.90
21445;DHT22;10883;51.946;20.140;2023-04-25T14:16:46;12.20;99.90
21445;DHT22;10883;51.946;20.140;2023-04-25T14:19:17;12.00;99.90
21445;DHT22;10883;51.946;20.140;2023-04-25T14:21:43;11.90;99.90
21445;DHT22;10883;51.946;20.140;2023-04-25T14:24:09;11.80;99.90
21445;DHT22;10883;51.946;20.140;2023-04-25T14:26:36;11.80;99.90
21445;DHT22;10883;51.946;20.140;2023-04-25T14:29:06;11.80;99.90
21445;DHT22;10883;51.946;20.140;2023-04-25T14:31:33;11.90;99.90
21445;DHT22;10883;51.946;20.140;2023-04-25T14:34:01;11.90;99.90
21445;DHT22;10883;51.946;20.140;2023-04-25T14:36:31;11.90;99.90
21445;DHT22;10883;51.946;20.140;2023-04-25T14:38:57;11.90;99.90
21445;DHT22;10883;51.946;20.140;2023-04-25T14:41:24;11.90;99.90
21445;DHT22;10883;51.946;20.140;2023-04-25T14:43:50;11.80;99.90
21445;DHT22;10883;51.946;20.140;2023-04-25T14:46:16;11.90;99.90
21445;DHT22;10883;51.946;20.140;2023-04-25T14:48:42;11.80;99.90
21445;DHT22;10883;51.946;20.140;2023-04-25T14:51:08;11.90;99.90
21445;DHT22;10883;51.946;20.140;2023-04-25T14:53:34;11.90;99.90
21445;DHT22;10883;51.946;20.140;2023-04-25T14:55:59;11.90;99.90
21445;DHT22;10883;51.946;20.140;2023-04-25T14:58:25;12.10;99.90
21445;DHT22;10883;51.946;20.140;2023-04-25T15:00:51;12.10;99.90
21445;DHT22;10883;51.946;20.140;2023-04-25T15:03:17;12.00;99.90
21445;DHT22;10883;51.946;20.140;2023-04-25T15:05:43;12.10;99.90
21445;DHT22;10883;51.946;20.140;2023-04-25T15:08:09;12.10;99.90
21445;DHT22;10883;51.946;20.140;2023-04-25T15:10:36;12.10;99.90
21445;DHT22;10883;51.946;20.140;2023-04-25T15:13:02;12.00;99.90
21445;DHT22;10883;51.946;20.140;2023-04-25T15:15:28;12.00;99.90
21445;DHT22;10883;51.946;20.140;2023-04-25T15:17:54;11.90;99.90
21445;DHT22;10883;51.946;20.140;2023-04-25T15:20:21;11.70;99.90
21445;DHT22;10883;51.946;20.140;2023-04-25T15:22:47;11.50;99.90
21445;DHT22;10883;51.946;20.140;2023-04-25T15:25:15;11.50;99.90
21445;DHT22;10883;51.946;20.140;2023-04-25T15:27:43;11.30;99.90